Estas fotos corresponden a recuerdos de la década de los años 1950 y 1960 del Aeroclub Mar del Plata

 

Facebook Aeroclub Mar del Plata

Informe Climatico
MAR DEL PLATA AR
Metar
SAZM 152000Z 18010KT 9999 BKN020 SCT200 12/08 Q1024

20:00 UTC

Wind: 180° 10kt

Visibility: 9999 m

Sky: BKN 2000 ft

Temp: 12 deg C / 53.6 deg F

Dewpoint: 8 deg C / 46.4 deg F

Pressure: 1024 hPa

TAF
TAF SAZM 151700Z 1518/1618 16015KT 9999 SCT020 BKN080 TX14/1618Z TN08/1610Z BECMG 1523/1601 7000 BKN010 BECMG 1611/1613 11015G25KT 9999 SCT020 BKN050